sensor_id;sensor_type;location;lat;lon;timestamp;temperature;humidity
24452;DHT22;13350;50.984;5.822;2023-12-20T00:01:56;8.40;99.90
24452;DHT22;13350;50.984;5.822;2023-12-20T00:04:23;8.40;99.90
24452;DHT22;13350;50.984;5.822;2023-12-20T00:06:49;8.30;99.90
24452;DHT22;13350;50.984;5.822;2023-12-20T00:09:17;8.30;99.90
24452;DHT22;13350;50.984;5.822;2023-12-20T00:11:44;8.30;99.90
24452;DHT22;13350;50.984;5.822;2023-12-20T00:14:11;8.20;99.90
24452;DHT22;13350;50.984;5.822;2023-12-20T00:16:38;8.10;99.90
24452;DHT22;13350;50.984;5.822;2023-12-20T00:19:07;7.90;99.90
24452;DHT22;13350;50.984;5.822;2023-12-20T00:21:34;7.80;99.90
24452;DHT22;13350;50.984;5.822;2023-12-20T00:24:00;7.70;99.90
24452;DHT22;13350;50.984;5.822;2023-12-20T00:26:27;7.40;99.90
24452;DHT22;13350;50.984;5.822;2023-12-20T00:28:54;7.40;99.90
24452;DHT22;13350;50.984;5.822;2023-12-20T00:31:21;7.30;99.90
24452;DHT22;13350;50.984;5.822;2023-12-20T00:33:48;7.20;99.90
24452;DHT22;13350;50.984;5.822;2023-12-20T00:36:16;7.10;99.90
24452;DHT22;13350;50.984;5.822;2023-12-20T00:38:43;7.00;99.90
24452;DHT22;13350;50.984;5.822;2023-12-20T00:41:10;6.90;99.90
24452;DHT22;13350;50.984;5.822;2023-12-20T00:43:37;6.80;99.90
24452;DHT22;13350;50.984;5.822;2023-12-20T00:46:04;6.80;99.90
24452;DHT22;13350;50.984;5.822;2023-12-20T00:48:31;6.70;99.90
24452;DHT22;13350;50.984;5.822;2023-12-20T00:50:58;6.70;99.90
24452;DHT22;13350;50.984;5.822;2023-12-20T00:53:26;6.70;99.90
24452;DHT22;13350;50.984;5.822;2023-12-20T00:55:53;6.70;99.90
24452;DHT22;13350;50.984;5.822;2023-12-20T00:58:20;6.50;99.90
24452;DHT22;13350;50.984;5.822;2023-12-20T01:00:47;6.50;99.90
24452;DHT22;13350;50.984;5.822;2023-12-20T01:03:14;6.40;99.90
24452;DHT22;13350;50.984;5.822;2023-12-20T01:05:41;6.50;99.90
24452;DHT22;13350;50.984;5.822;2023-12-20T01:08:08;6.60;99.90
24452;DHT22;13350;50.984;5.822;2023-12-20T01:10:36;6.60;99.90
24452;DHT22;13350;50.984;5.822;2023-12-20T01:13:04;6.60;99.90
24452;DHT22;13350;50.984;5.822;2023-12-20T01:15:31;6.60;99.90
24452;DHT22;13350;50.984;5.822;2023-12-20T01:17:57;6.60;99.90
24452;DHT22;13350;50.984;5.822;2023-12-20T01:20:25;6.60;99.90
24452;DHT22;13350;50.984;5.822;2023-12-20T01:22:52;6.60;99.90
24452;DHT22;13350;50.984;5.822;2023-12-20T01:25:19;6.50;99.90
24452;DHT22;13350;50.984;5.822;2023-12-20T01:27:47;6.50;99.90
24452;DHT22;13350;50.984;5.822;2023-12-20T01:30:14;6.40;99.90
24452;DHT22;13350;50.984;5.822;2023-12-20T01:32:41;6.40;99.90
24452;DHT22;13350;50.984;5.822;2023-12-20T01:35:08;6.40;99.90
24452;DHT22;13350;50.984;5.822;2023-12-20T01:37:35;6.40;99.90
24452;DHT22;13350;50.984;5.822;2023-12-20T01:40:03;6.30;99.90
24452;DHT22;13350;50.984;5.822;2023-12-20T01:42:30;6.30;99.90
24452;DHT22;13350;50.984;5.822;2023-12-20T01:44:58;6.30;99.90
24452;DHT22;13350;50.984;5.822;2023-12-20T01:47:25;6.30;99.90
24452;DHT22;13350;50.984;5.822;2023-12-20T01:49:52;6.40;99.90
24452;DHT22;13350;50.984;5.822;2023-12-20T01:52:19;6.40;99.90
24452;DHT22;13350;50.984;5.822;2023-12-20T01:54:46;6.20;99.90
24452;DHT22;13350;50.984;5.822;2023-12-20T01:57:14;6.20;99.90
24452;DHT22;13350;50.984;5.822;2023-12-20T01:59:41;6.20;99.90
24452;DHT22;13350;50.984;5.822;2023-12-20T02:02:09;6.20;99.90
24452;DHT22;13350;50.984;5.822;2023-12-20T02:04:38;6.30;99.90
24452;DHT22;13350;50.984;5.822;2023-12-20T02:07:05;6.30;99.90
24452;DHT22;13350;50.984;5.822;2023-12-20T02:09:33;6.30;99.90
24452;DHT22;13350;50.984;5.822;2023-12-20T02:12:00;6.20;99.90
24452;DHT22;13350;50.984;5.822;2023-12-20T02:14:27;6.20;99.90
24452;DHT22;13350;50.984;5.822;2023-12-20T02:16:54;6.10;99.90
24452;DHT22;13350;50.984;5.822;2023-12-20T02:19:22;6.10;99.90
24452;DHT22;13350;50.984;5.822;2023-12-20T02:21:50;6.20;99.90
24452;DHT22;13350;50.984;5.822;2023-12-20T02:24:31;6.20;99.90
24452;DHT22;13350;50.984;5.822;2023-12-20T02:26:58;6.20;99.90
24452;DHT22;13350;50.984;5.822;2023-12-20T02:29:25;6.10;99.90
24452;DHT22;13350;50.984;5.822;2023-12-20T02:31:52;6.10;99.90
24452;DHT22;13350;50.984;5.822;2023-12-20T02:34:19;6.20;99.90
24452;DHT22;13350;50.984;5.822;2023-12-20T02:36:46;6.20;99.90
24452;DHT22;13350;50.984;5.822;2023-12-20T02:39:15;6.30;99.90
24452;DHT22;13350;50.984;5.822;2023-12-20T02:41:42;6.30;99.90
24452;DHT22;13350;50.984;5.822;2023-12-20T02:44:09;6.30;99.90
24452;DHT22;13350;50.984;5.822;2023-12-20T02:46:36;6.20;99.90
24452;DHT22;13350;50.984;5.822;2023-12-20T02:49:03;6.20;99.90
24452;DHT22;13350;50.984;5.822;2023-12-20T02:51:30;6.10;99.90
24452;DHT22;13350;50.984;5.822;2023-12-20T02:53:57;6.00;99.90
24452;DHT22;13350;50.984;5.822;2023-12-20T02:56:26;6.00;99.90
24452;DHT22;13350;50.984;5.822;2023-12-20T02:58:52;6.00;99.90
24452;DHT22;13350;50.984;5.822;2023-12-20T03:01:19;6.00;99.90
24452;DHT22;13350;50.984;5.822;2023-12-20T03:03:46;6.00;99.90
24452;DHT22;13350;50.984;5.822;2023-12-20T03:06:16;6.00;99.90
24452;DHT22;13350;50.984;5.822;2023-12-20T03:08:43;6.00;99.90
24452;DHT22;13350;50.984;5.822;2023-12-20T03:11:10;6.10;99.90
24452;DHT22;13350;50.984;5.822;2023-12-20T03:13:38;6.10;99.90
24452;DHT22;13350;50.984;5.822;2023-12-20T03:16:07;6.10;99.90
24452;DHT22;13350;50.984;5.822;2023-12-20T03:18:34;6.10;99.90
24452;DHT22;13350;50.984;5.822;2023-12-20T03:21:01;6.00;99.90
24452;DHT22;13350;50.984;5.822;2023-12-20T03:23:28;5.90;99.90
24452;DHT22;13350;50.984;5.822;2023-12-20T03:25:56;5.80;99.90
24452;DHT22;13350;50.984;5.822;2023-12-20T03:28:23;5.70;99.90
24452;DHT22;13350;50.984;5.822;2023-12-20T03:30:52;5.80;99.90
24452;DHT22;13350;50.984;5.822;2023-12-20T03:33:19;5.90;99.90
24452;DHT22;13350;50.984;5.822;2023-12-20T03:35:45;5.90;99.90
24452;DHT22;13350;50.984;5.822;2023-12-20T03:38:12;5.90;99.90
24452;DHT22;13350;50.984;5.822;2023-12-20T03:40:39;5.90;99.90
24452;DHT22;13350;50.984;5.822;2023-12-20T03:43:06;5.80;99.90
24452;DHT22;13350;50.984;5.822;2023-12-20T03:45:33;5.80;99.90
24452;DHT22;13350;50.984;5.822;2023-12-20T03:48:02;5.70;99.90
24452;DHT22;13350;50.984;5.822;2023-12-20T03:50:29;5.70;99.90
24452;DHT22;13350;50.984;5.822;2023-12-20T03:52:56;5.60;99.90
24452;DHT22;13350;50.984;5.822;2023-12-20T03:55:23;5.60;99.90
24452;DHT22;13350;50.984;5.822;2023-12-20T03:57:50;5.60;99.90
24452;DHT22;13350;50.984;5.822;2023-12-20T04:00:17;5.50;99.90
24452;DHT22;13350;50.984;5.822;2023-12-20T04:02:44;5.50;99.90
24452;DHT22;13350;50.984;5.822;2023-12-20T04:05:12;5.50;99.90
24452;DHT22;13350;50.984;5.822;2023-12-20T04:07:39;5.50;99.90
24452;DHT22;13350;50.984;5.822;2023-12-20T04:10:07;5.50;99.90
24452;DHT22;13350;50.984;5.822;2023-12-20T04:12:34;5.50;99.90
24452;DHT22;13350;50.984;5.822;2023-12-20T04:15:01;5.50;99.90
24452;DHT22;13350;50.984;5.822;2023-12-20T04:17:34;5.60;99.90
24452;DHT22;13350;50.984;5.822;2023-12-20T04:20:01;5.60;99.90
24452;DHT22;13350;50.984;5.822;2023-12-20T04:22:30;5.60;99.90
24452;DHT22;13350;50.984;5.822;2023-12-20T04:24:56;5.70;99.90
24452;DHT22;13350;50.984;5.822;2023-12-20T04:27:23;5.70;99.90
24452;DHT22;13350;50.984;5.822;2023-12-20T04:29:51;5.70;99.90
24452;DHT22;13350;50.984;5.822;2023-12-20T04:32:18;5.70;99.90
24452;DHT22;13350;50.984;5.822;2023-12-20T04:34:44;5.70;99.90
24452;DHT22;13350;50.984;5.822;2023-12-20T04:37:11;5.70;99.90
24452;DHT22;13350;50.984;5.822;2023-12-20T04:39:40;5.70;99.90
24452;DHT22;13350;50.984;5.822;2023-12-20T04:42:08;5.70;99.90
24452;DHT22;13350;50.984;5.822;2023-12-20T04:44:35;5.80;99.90
24452;DHT22;13350;50.984;5.822;2023-12-20T04:47:02;5.80;99.90
24452;DHT22;13350;50.984;5.822;2023-12-20T04:49:29;5.80;99.90
24452;DHT22;13350;50.984;5.822;2023-12-20T04:51:56;5.90;99.90
24452;DHT22;13350;50.984;5.822;2023-12-20T04:54:22;5.90;99.90
24452;DHT22;13350;50.984;5.822;2023-12-20T04:56:51;5.90;99.90
24452;DHT22;13350;50.984;5.822;2023-12-20T04:59:18;5.90;99.90
24452;DHT22;13350;50.984;5.822;2023-12-20T05:01:45;5.90;99.90
24452;DHT22;13350;50.984;5.822;2023-12-20T05:04:12;5.90;99.90
24452;DHT22;13350;50.984;5.822;2023-12-20T05:06:38;5.90;99.90
24452;DHT22;13350;50.984;5.822;2023-12-20T05:09:05;5.90;99.90
24452;DHT22;13350;50.984;5.822;2023-12-20T05:11:32;6.00;99.90
24452;DHT22;13350;50.984;5.822;2023-12-20T05:14:01;6.00;99.90
24452;DHT22;13350;50.984;5.822;2023-12-20T05:16:28;6.00;99.90
24452;DHT22;13350;50.984;5.822;2023-12-20T05:18:54;6.00;99.90
24452;DHT22;13350;50.984;5.822;2023-12-20T05:21:21;6.00;99.90
24452;DHT22;13350;50.984;5.822;2023-12-20T05:23:48;6.00;99.90
24452;DHT22;13350;50.984;5.822;2023-12-20T05:26:15;6.00;99.90
24452;DHT22;13350;50.984;5.822;2023-12-20T05:28:42;6.00;99.90
24452;DHT22;13350;50.984;5.822;2023-12-20T05:31:10;6.00;99.90
24452;DHT22;13350;50.984;5.822;2023-12-20T05:33:37;6.00;99.90
24452;DHT22;13350;50.984;5.822;2023-12-20T05:36:04;6.00;99.90
24452;DHT22;13350;50.984;5.822;2023-12-20T05:38:34;6.00;99.90
24452;DHT22;13350;50.984;5.822;2023-12-20T05:41:01;6.10;99.90
24452;DHT22;13350;50.984;5.822;2023-12-20T05:43:29;6.10;99.90
24452;DHT22;13350;50.984;5.822;2023-12-20T05:45:56;6.00;99.90
24452;DHT22;13350;50.984;5.822;2023-12-20T05:48:24;6.00;99.90
24452;DHT22;13350;50.984;5.822;2023-12-20T05:50:51;6.00;99.90
24452;DHT22;13350;50.984;5.822;2023-12-20T05:53:18;6.00;99.90
24452;DHT22;13350;50.984;5.822;2023-12-20T05:55:45;6.00;99.90
24452;DHT22;13350;50.984;5.822;2023-12-20T05:58:12;6.00;99.90
24452;DHT22;13350;50.984;5.822;2023-12-20T06:00:39;6.00;99.90
24452;DHT22;13350;50.984;5.822;2023-12-20T06:03:06;6.00;99.90
24452;DHT22;13350;50.984;5.822;2023-12-20T06:05:34;6.00;99.90
24452;DHT22;13350;50.984;5.822;2023-12-20T06:08:01;5.90;99.90
24452;DHT22;13350;50.984;5.822;2023-12-20T06:10:28;5.90;99.90
24452;DHT22;13350;50.984;5.822;2023-12-20T06:12:55;5.90;99.90
24452;DHT22;13350;50.984;5.822;2023-12-20T06:15:24;6.00;99.90
24452;DHT22;13350;50.984;5.822;2023-12-20T06:17:51;6.00;99.90
24452;DHT22;13350;50.984;5.822;2023-12-20T06:20:18;5.90;99.90
24452;DHT22;13350;50.984;5.822;2023-12-20T06:22:46;5.90;99.90
24452;DHT22;13350;50.984;5.822;2023-12-20T06:25:13;5.90;99.90
24452;DHT22;13350;50.984;5.822;2023-12-20T06:27:40;5.90;99.90
24452;DHT22;13350;50.984;5.822;2023-12-20T06:30:07;5.90;99.90
24452;DHT22;13350;50.984;5.822;2023-12-20T06:32:35;5.90;99.90
24452;DHT22;13350;50.984;5.822;2023-12-20T06:35:03;5.90;99.90
24452;DHT22;13350;50.984;5.822;2023-12-20T06:37:30;5.90;99.90
24452;DHT22;13350;50.984;5.822;2023-12-20T06:39:59;5.90;99.90
24452;DHT22;13350;50.984;5.822;2023-12-20T06:42:25;5.70;99.90
24452;DHT22;13350;50.984;5.822;2023-12-20T06:44:52;5.70;99.90
24452;DHT22;13350;50.984;5.822;2023-12-20T06:47:20;5.70;99.90
24452;DHT22;13350;50.984;5.822;2023-12-20T06:49:47;5.70;99.90
24452;DHT22;13350;50.984;5.822;2023-12-20T06:52:13;5.60;99.90
24452;DHT22;13350;50.984;5.822;2023-12-20T06:54:40;5.60;99.90
24452;DHT22;13350;50.984;5.822;2023-12-20T06:57:09;5.60;99.90
24452;DHT22;13350;50.984;5.822;2023-12-20T06:59:38;5.60;99.90
24452;DHT22;13350;50.984;5.822;2023-12-20T07:02:05;5.50;99.90
24452;DHT22;13350;50.984;5.822;2023-12-20T07:04:32;5.50;99.90
24452;DHT22;13350;50.984;5.822;2023-12-20T07:06:59;5.50;99.90
24452;DHT22;13350;50.984;5.822;2023-12-20T07:09:26;5.60;99.90
24452;DHT22;13350;50.984;5.822;2023-12-20T07:11:53;5.60;99.90
24452;DHT22;13350;50.984;5.822;2023-12-20T07:14:21;5.50;99.90
24452;DHT22;13350;50.984;5.822;2023-12-20T07:16:48;5.40;99.90
24452;DHT22;13350;50.984;5.822;2023-12-20T07:19:15;5.40;99.90
24452;DHT22;13350;50.984;5.822;2023-12-20T07:21:43;5.40;99.90
24452;DHT22;13350;50.984;5.822;2023-12-20T07:24:10;5.30;99.90
24452;DHT22;13350;50.984;5.822;2023-12-20T07:26:37;5.30;99.90
24452;DHT22;13350;50.984;5.822;2023-12-20T07:29:05;5.30;99.90
24452;DHT22;13350;50.984;5.822;2023-12-20T07:31:33;5.40;99.90
24452;DHT22;13350;50.984;5.822;2023-12-20T07:34:00;5.40;99.90
24452;DHT22;13350;50.984;5.822;2023-12-20T07:36:27;5.40;99.90
24452;DHT22;13350;50.984;5.822;2023-12-20T07:38:54;5.50;99.90
24452;DHT22;13350;50.984;5.822;2023-12-20T07:41:21;5.50;99.90
24452;DHT22;13350;50.984;5.822;2023-12-20T07:43:49;5.50;99.90
24452;DHT22;13350;50.984;5.822;2023-12-20T07:46:16;5.40;99.90
24452;DHT22;13350;50.984;5.822;2023-12-20T07:48:45;5.40;99.90
24452;DHT22;13350;50.984;5.822;2023-12-20T07:51:12;5.40;99.90
24452;DHT22;13350;50.984;5.822;2023-12-20T07:53:39;5.30;99.90
24452;DHT22;13350;50.984;5.822;2023-12-20T07:56:13;5.30;99.90
24452;DHT22;13350;50.984;5.822;2023-12-20T07:58:40;5.30;99.90
24452;DHT22;13350;50.984;5.822;2023-12-20T08:01:07;5.50;99.90
24452;DHT22;13350;50.984;5.822;2023-12-20T08:03:34;5.50;99.90
24452;DHT22;13350;50.984;5.822;2023-12-20T08:06:02;5.50;99.90
24452;DHT22;13350;50.984;5.822;2023-12-20T08:08:29;5.50;99.90
24452;DHT22;13350;50.984;5.822;2023-12-20T08:10:56;5.50;99.90
24452;DHT22;13350;50.984;5.822;2023-12-20T08:13:25;5.50;99.90
24452;DHT22;13350;50.984;5.822;2023-12-20T08:15:52;5.50;99.90
24452;DHT22;13350;50.984;5.822;2023-12-20T08:18:21;5.50;99.90
24452;DHT22;13350;50.984;5.822;2023-12-20T08:20:48;5.50;99.90
24452;DHT22;13350;50.984;5.822;2023-12-20T08:23:19;5.50;99.90
24452;DHT22;13350;50.984;5.822;2023-12-20T08:25:47;5.40;99.90
24452;DHT22;13350;50.984;5.822;2023-12-20T08:28:14;5.40;99.90
24452;DHT22;13350;50.984;5.822;2023-12-20T08:30:41;5.50;99.90
24452;DHT22;13350;50.984;5.822;2023-12-20T08:33:08;5.50;99.90
24452;DHT22;13350;50.984;5.822;2023-12-20T08:35:38;5.60;99.90
24452;DHT22;13350;50.984;5.822;2023-12-20T08:38:05;5.60;99.90
24452;DHT22;13350;50.984;5.822;2023-12-20T08:40:34;5.70;99.90
24452;DHT22;13350;50.984;5.822;2023-12-20T08:43:01;5.80;99.90
24452;DHT22;13350;50.984;5.822;2023-12-20T08:45:28;5.80;99.90
24452;DHT22;13350;50.984;5.822;2023-12-20T08:47:55;5.90;99.90
24452;DHT22;13350;50.984;5.822;2023-12-20T08:50:22;5.90;99.90
24452;DHT22;13350;50.984;5.822;2023-12-20T08:52:49;5.80;99.90
24452;DHT22;13350;50.984;5.822;2023-12-20T08:55:16;5.80;99.90
24452;DHT22;13350;50.984;5.822;2023-12-20T08:57:45;5.70;99.90
24452;DHT22;13350;50.984;5.822;2023-12-20T09:00:12;5.80;99.90
24452;DHT22;13350;50.984;5.822;2023-12-20T09:02:40;6.10;99.90
24452;DHT22;13350;50.984;5.822;2023-12-20T09:05:07;6.30;99.90
24452;DHT22;13350;50.984;5.822;2023-12-20T09:07:34;6.30;99.90
24452;DHT22;13350;50.984;5.822;2023-12-20T09:10:02;6.70;99.90
24452;DHT22;13350;50.984;5.822;2023-12-20T09:12:29;6.60;99.90
24452;DHT22;13350;50.984;5.822;2023-12-20T09:14:57;6.30;99.90
24452;DHT22;13350;50.984;5.822;2023-12-20T09:17:27;6.10;99.90
24452;DHT22;13350;50.984;5.822;2023-12-20T09:19:54;6.40;99.90
24452;DHT22;13350;50.984;5.822;2023-12-20T09:22:20;6.70;99.90
24452;DHT22;13350;50.984;5.822;2023-12-20T09:24:47;6.50;99.90
24452;DHT22;13350;50.984;5.822;2023-12-20T09:27:14;6.90;99.90
24452;DHT22;13350;50.984;5.822;2023-12-20T09:29:41;7.30;99.90
24452;DHT22;13350;50.984;5.822;2023-12-20T09:32:10;7.60;99.90
24452;DHT22;13350;50.984;5.822;2023-12-20T09:34:37;7.10;99.90
24452;DHT22;13350;50.984;5.822;2023-12-20T09:37:04;7.20;99.90
24452;DHT22;13350;50.984;5.822;2023-12-20T09:39:31;7.40;99.90
24452;DHT22;13350;50.984;5.822;2023-12-20T09:42:00;7.90;99.90
24452;DHT22;13350;50.984;5.822;2023-12-20T09:44:27;7.30;99.90
24452;DHT22;13350;50.984;5.822;2023-12-20T09:46:55;7.30;99.90
24452;DHT22;13350;50.984;5.822;2023-12-20T09:49:23;7.20;99.90
24452;DHT22;13350;50.984;5.822;2023-12-20T09:51:52;7.00;99.90
24452;DHT22;13350;50.984;5.822;2023-12-20T09:54:20;7.60;99.90
24452;DHT22;13350;50.984;5.822;2023-12-20T09:56:47;8.10;99.90
24452;DHT22;13350;50.984;5.822;2023-12-20T09:59:15;7.60;99.90
24452;DHT22;13350;50.984;5.822;2023-12-20T10:01:42;7.20;99.90
24452;DHT22;13350;50.984;5.822;2023-12-20T10:04:10;7.20;99.90
24452;DHT22;13350;50.984;5.822;2023-12-20T10:06:40;7.40;99.90
24452;DHT22;13350;50.984;5.822;2023-12-20T10:09:07;8.10;99.90
24452;DHT22;13350;50.984;5.822;2023-12-20T10:11:34;8.00;99.90
24452;DHT22;13350;50.984;5.822;2023-12-20T10:14:03;7.50;99.90
24452;DHT22;13350;50.984;5.822;2023-12-20T10:16:30;7.30;99.90
24452;DHT22;13350;50.984;5.822;2023-12-20T10:18:58;7.20;99.90
24452;DHT22;13350;50.984;5.822;2023-12-20T10:21:25;7.00;99.90
24452;DHT22;13350;50.984;5.822;2023-12-20T10:23:54;6.90;99.90
24452;DHT22;13350;50.984;5.822;2023-12-20T10:26:21;7.00;99.90
24452;DHT22;13350;50.984;5.822;2023-12-20T10:28:50;7.10;99.90
24452;DHT22;13350;50.984;5.822;2023-12-20T10:31:25;7.00;99.90
24452;DHT22;13350;50.984;5.822;2023-12-20T10:33:52;6.90;99.90
24452;DHT22;13350;50.984;5.822;2023-12-20T10:36:19;6.90;99.90
24452;DHT22;13350;50.984;5.822;2023-12-20T10:38:47;6.90;99.90
24452;DHT22;13350;50.984;5.822;2023-12-20T10:41:19;7.00;99.90
24452;DHT22;13350;50.984;5.822;2023-12-20T10:43:51;6.90;99.90
24452;DHT22;13350;50.984;5.822;2023-12-20T10:46:18;7.00;99.90
24452;DHT22;13350;50.984;5.822;2023-12-20T10:48:46;7.00;99.90
24452;DHT22;13350;50.984;5.822;2023-12-20T10:51:13;7.00;99.90
24452;DHT22;13350;50.984;5.822;2023-12-20T10:53:41;7.00;99.90
24452;DHT22;13350;50.984;5.822;2023-12-20T10:56:09;7.10;99.90
24452;DHT22;13350;50.984;5.822;2023-12-20T10:58:40;7.20;99.90
24452;DHT22;13350;50.984;5.822;2023-12-20T11:01:10;7.40;99.90
24452;DHT22;13350;50.984;5.822;2023-12-20T11:03:39;7.60;99.90
24452;DHT22;13350;50.984;5.822;2023-12-20T11:06:10;7.90;99.90
24452;DHT22;13350;50.984;5.822;2023-12-20T11:08:43;7.90;99.90
24452;DHT22;13350;50.984;5.822;2023-12-20T11:11:12;7.80;99.90
24452;DHT22;13350;50.984;5.822;2023-12-20T11:13:43;7.60;99.90
24452;DHT22;13350;50.984;5.822;2023-12-20T11:16:14;7.60;99.90
24452;DHT22;13350;50.984;5.822;2023-12-20T11:18:41;7.60;99.90
24452;DHT22;13350;50.984;5.822;2023-12-20T11:21:09;7.60;99.90
24452;DHT22;13350;50.984;5.822;2023-12-20T11:23:37;7.50;99.90
24452;DHT22;13350;50.984;5.822;2023-12-20T11:26:04;7.50;99.90
24452;DHT22;13350;50.984;5.822;2023-12-20T11:28:31;7.60;99.90
24452;DHT22;13350;50.984;5.822;2023-12-20T11:31:00;7.60;99.90
24452;DHT22;13350;50.984;5.822;2023-12-20T11:33:29;7.50;99.90
24452;DHT22;13350;50.984;5.822;2023-12-20T11:35:57;7.60;99.90
24452;DHT22;13350;50.984;5.822;2023-12-20T11:38:25;7.60;99.90
24452;DHT22;13350;50.984;5.822;2023-12-20T11:40:53;7.60;99.90
24452;DHT22;13350;50.984;5.822;2023-12-20T11:43:29;7.50;99.90
24452;DHT22;13350;50.984;5.822;2023-12-20T11:45:57;7.50;99.90
24452;DHT22;13350;50.984;5.822;2023-12-20T11:48:31;7.50;99.90
24452;DHT22;13350;50.984;5.822;2023-12-20T11:50:58;7.50;99.90
24452;DHT22;13350;50.984;5.822;2023-12-20T11:53:24;7.50;99.90
24452;DHT22;13350;50.984;5.822;2023-12-20T11:55:51;7.50;99.90
24452;DHT22;13350;50.984;5.822;2023-12-20T11:58:20;7.50;99.90
24452;DHT22;13350;50.984;5.822;2023-12-20T12:00:48;7.40;99.90
24452;DHT22;13350;50.984;5.822;2023-12-20T12:03:15;7.40;99.90
24452;DHT22;13350;50.984;5.822;2023-12-20T12:05:43;7.30;99.90
24452;DHT22;13350;50.984;5.822;2023-12-20T12:08:12;7.20;99.90
24452;DHT22;13350;50.984;5.822;2023-12-20T12:10:39;7.20;99.90
24452;DHT22;13350;50.984;5.822;2023-12-20T12:13:06;7.20;99.90
24452;DHT22;13350;50.984;5.822;2023-12-20T12:15:33;7.10;99.90
24452;DHT22;13350;50.984;5.822;2023-12-20T12:18:00;7.10;99.90
24452;DHT22;13350;50.984;5.822;2023-12-20T12:20:27;7.00;99.90
24452;DHT22;13350;50.984;5.822;2023-12-20T12:22:59;7.00;99.90
24452;DHT22;13350;50.984;5.822;2023-12-20T12:25:26;7.00;99.90
24452;DHT22;13350;50.984;5.822;2023-12-20T12:27:53;6.90;99.90
24452;DHT22;13350;50.984;5.822;2023-12-20T12:30:20;6.90;99.90
24452;DHT22;13350;50.984;5.822;2023-12-20T12:32:47;7.00;99.90
24452;DHT22;13350;50.984;5.822;2023-12-20T12:35:14;7.00;99.90
24452;DHT22;13350;50.984;5.822;2023-12-20T12:37:41;7.00;99.90
24452;DHT22;13350;50.984;5.822;2023-12-20T12:40:11;7.10;99.90
24452;DHT22;13350;50.984;5.822;2023-12-20T12:42:38;7.10;99.90
24452;DHT22;13350;50.984;5.822;2023-12-20T12:45:06;7.20;99.90
24452;DHT22;13350;50.984;5.822;2023-12-20T12:47:33;7.30;99.90
24452;DHT22;13350;50.984;5.822;2023-12-20T12:50:00;7.30;99.90
24452;DHT22;13350;50.984;5.822;2023-12-20T12:52:27;7.30;99.90
24452;DHT22;13350;50.984;5.822;2023-12-20T12:54:54;7.40;99.90
24452;DHT22;13350;50.984;5.822;2023-12-20T12:57:23;7.40;99.90
24452;DHT22;13350;50.984;5.822;2023-12-20T12:59:50;7.40;99.90
24452;DHT22;13350;50.984;5.822;2023-12-20T13:02:17;7.30;99.90
24452;DHT22;13350;50.984;5.822;2023-12-20T13:04:44;7.30;99.90
24452;DHT22;13350;50.984;5.822;2023-12-20T13:07:11;7.30;99.90
24452;DHT22;13350;50.984;5.822;2023-12-20T13:09:39;7.30;99.90
24452;DHT22;13350;50.984;5.822;2023-12-20T13:12:06;7.30;99.90
24452;DHT22;13350;50.984;5.822;2023-12-20T13:14:35;7.30;99.90
24452;DHT22;13350;50.984;5.822;2023-12-20T13:17:03;7.20;99.90
24452;DHT22;13350;50.984;5.822;2023-12-20T13:19:31;7.30;99.90
24452;DHT22;13350;50.984;5.822;2023-12-20T13:21:58;7.30;99.90
24452;DHT22;13350;50.984;5.822;2023-12-20T13:24:25;7.40;99.90
24452;DHT22;13350;50.984;5.822;2023-12-20T13:26:52;7.40;99.90
24452;DHT22;13350;50.984;5.822;2023-12-20T13:29:19;7.40;99.90
24452;DHT22;13350;50.984;5.822;2023-12-20T13:31:47;7.40;99.90
24452;DHT22;13350;50.984;5.822;2023-12-20T13:34:14;7.40;99.90
24452;DHT22;13350;50.984;5.822;2023-12-20T13:36:42;7.50;99.90
24452;DHT22;13350;50.984;5.822;2023-12-20T13:39:11;7.60;99.90
24452;DHT22;13350;50.984;5.822;2023-12-20T13:41:38;7.60;99.90
24452;DHT22;13350;50.984;5.822;2023-12-20T13:44:05;7.60;99.90
24452;DHT22;13350;50.984;5.822;2023-12-20T13:46:32;7.60;99.90
24452;DHT22;13350;50.984;5.822;2023-12-20T13:49:00;7.60;99.90
24452;DHT22;13350;50.984;5.822;2023-12-20T13:51:28;7.60;99.90
24452;DHT22;13350;50.984;5.822;2023-12-20T13:53:55;7.60;99.90
24452;DHT22;13350;50.984;5.822;2023-12-20T13:56:23;7.60;99.90
24452;DHT22;13350;50.984;5.822;2023-12-20T13:58:50;7.60;99.90
24452;DHT22;13350;50.984;5.822;2023-12-20T14:01:17;7.60;99.90
24452;DHT22;13350;50.984;5.822;2023-12-20T14:03:44;7.50;99.90
24452;DHT22;13350;50.984;5.822;2023-12-20T14:06:13;7.50;99.90
24452;DHT22;13350;50.984;5.822;2023-12-20T14:08:40;7.50;99.90
24452;DHT22;13350;50.984;5.822;2023-12-20T14:11:08;7.50;99.90
24452;DHT22;13350;50.984;5.822;2023-12-20T14:13:35;7.50;99.90
24452;DHT22;13350;50.984;5.822;2023-12-20T14:16:02;7.50;99.90
24452;DHT22;13350;50.984;5.822;2023-12-20T14:18:29;7.50;99.90
24452;DHT22;13350;50.984;5.822;2023-12-20T14:20:56;7.50;99.90
24452;DHT22;13350;50.984;5.822;2023-12-20T14:23:25;7.50;99.90
24452;DHT22;13350;50.984;5.822;2023-12-20T14:25:52;7.50;99.90
24452;DHT22;13350;50.984;5.822;2023-12-20T14:28:21;7.50;99.90
24452;DHT22;13350;50.984;5.822;2023-12-20T14:30:48;7.50;99.90
24452;DHT22;13350;50.984;5.822;2023-12-20T14:33:15;7.50;99.90
24452;DHT22;13350;50.984;5.822;2023-12-20T14:35:42;7.50;99.90
24452;DHT22;13350;50.984;5.822;2023-12-20T14:38:09;7.60;99.90
24452;DHT22;13350;50.984;5.822;2023-12-20T14:40:40;7.50;99.90
24452;DHT22;13350;50.984;5.822;2023-12-20T14:43:07;7.50;99.90
24452;DHT22;13350;50.984;5.822;2023-12-20T14:45:34;7.60;99.90
24452;DHT22;13350;50.984;5.822;2023-12-20T14:48:01;7.60;99.90
24452;DHT22;13350;50.984;5.822;2023-12-20T14:50:28;7.50;99.90
24452;DHT22;13350;50.984;5.822;2023-12-20T14:52:55;7.60;99.90
24452;DHT22;13350;50.984;5.822;2023-12-20T14:55:22;7.60;99.90
24452;DHT22;13350;50.984;5.822;2023-12-20T14:57:50;7.60;99.90
24452;DHT22;13350;50.984;5.822;2023-12-20T15:00:17;7.60;99.90
24452;DHT22;13350;50.984;5.822;2023-12-20T15:02:45;7.60;99.90
24452;DHT22;13350;50.984;5.822;2023-12-20T15:05:12;7.60;99.90
24452;DHT22;13350;50.984;5.822;2023-12-20T15:07:39;7.60;99.90
24452;DHT22;13350;50.984;5.822;2023-12-20T15:10:07;7.60;99.90
24452;DHT22;13350;50.984;5.822;2023-12-20T15:12:34;7.50;99.90
24452;DHT22;13350;50.984;5.822;2023-12-20T15:15:03;7.50;99.90
24452;DHT22;13350;50.984;5.822;2023-12-20T15:17:30;7.50;99.90
24452;DHT22;13350;50.984;5.822;2023-12-20T15:19:57;7.60;99.90
24452;DHT22;13350;50.984;5.822;2023-12-20T15:22:24;7.60;99.90
24452;DHT22;13350;50.984;5.822;2023-12-20T15:24:52;7.60;99.90
24452;DHT22;13350;50.984;5.822;2023-12-20T15:27:20;7.60;99.90
24452;DHT22;13350;50.984;5.822;2023-12-20T15:29:47;7.60;99.90
24452;DHT22;13350;50.984;5.822;2023-12-20T15:32:17;7.60;99.90
24452;DHT22;13350;50.984;5.822;2023-12-20T15:34:44;7.60;99.90
24452;DHT22;13350;50.984;5.822;2023-12-20T15:37:11;7.60;99.90
24452;DHT22;13350;50.984;5.822;2023-12-20T15:39:40;7.60;99.90
24452;DHT22;13350;50.984;5.822;2023-12-20T15:42:07;7.60;99.90
24452;DHT22;13350;50.984;5.822;2023-12-20T15:44:34;7.60;99.90
24452;DHT22;13350;50.984;5.822;2023-12-20T15:47:01;7.60;99.90